createdAt,value
2017-11-21T00:00:55.619Z,0.00
2017-11-21T00:01:55.572Z,0.00
2017-11-21T00:02:55.531Z,0.00
2017-11-21T00:03:55.492Z,0.00
2017-11-21T00:04:55.456Z,0.00
2017-11-21T00:05:55.408Z,0.00
2017-11-21T00:06:55.366Z,0.00
2017-11-21T00:07:55.323Z,0.00
2017-11-21T00:08:55.284Z,0.00
2017-11-21T00:09:55.252Z,0.00
2017-11-21T00:10:55.205Z,0.00
2017-11-21T00:11:55.162Z,0.00
2017-11-21T00:12:55.138Z,0.00
2017-11-21T00:13:55.092Z,0.00
2017-11-21T00:14:55.063Z,0.00
2017-11-21T00:15:55.004Z,0.00
2017-11-21T00:16:54.960Z,0.00
2017-11-21T00:17:54.955Z,0.00
2017-11-21T00:18:54.888Z,0.00
2017-11-21T00:19:54.843Z,0.00
2017-11-21T00:20:54.799Z,0.00
2017-11-21T00:21:54.767Z,0.00
2017-11-21T00:22:54.722Z,0.00
2017-11-21T00:23:54.680Z,0.00
2017-11-21T00:24:54.636Z,0.00
2017-11-21T00:25:54.603Z,0.00
2017-11-21T00:26:54.563Z,0.00
2017-11-21T00:27:54.518Z,0.00
2017-11-21T00:28:54.480Z,0.00
2017-11-21T00:29:54.432Z,0.00
2017-11-21T00:30:54.394Z,0.00
2017-11-21T00:31:54.356Z,0.00
2017-11-21T00:32:54.316Z,0.00
2017-11-21T00:33:54.273Z,0.00
2017-11-21T00:34:54.265Z,0.00
2017-11-21T00:35:54.197Z,0.00
2017-11-21T00:36:54.188Z,0.00
2017-11-21T00:37:54.114Z,0.00
2017-11-21T00:38:54.083Z,0.00
2017-11-21T00:39:54.029Z,0.00
2017-11-21T00:40:53.989Z,0.00
2017-11-21T00:41:53.959Z,0.00
2017-11-21T00:42:53.944Z,0.00
2017-11-21T00:43:53.874Z,0.00
2017-11-21T00:44:53.841Z,0.00
2017-11-21T00:45:53.799Z,0.00
2017-11-21T00:46:53.760Z,0.00
2017-11-21T00:47:53.705Z,0.00
2017-11-21T00:48:53.668Z,0.00
2017-11-21T00:49:53.624Z,0.00
2017-11-21T00:50:53.586Z,0.00
2017-11-21T00:51:53.551Z,0.00
2017-11-21T00:52:53.513Z,0.00
2017-11-21T00:53:53.464Z,0.00
2017-11-21T00:54:53.427Z,0.00
2017-11-21T00:55:53.383Z,0.00
2017-11-21T00:56:53.344Z,0.00
2017-11-21T00:57:53.305Z,0.00
2017-11-21T00:58:53.263Z,0.00
2017-11-21T00:59:53.220Z,0.00
2017-11-21T01:00:53.181Z,0.00
2017-11-21T01:01:53.138Z,0.00
2017-11-21T01:02:53.102Z,0.00
2017-11-21T01:03:53.056Z,0.00
2017-11-21T01:04:53.028Z,0.00
2017-11-21T01:05:52.984Z,0.00
2017-11-21T01:06:52.941Z,0.00
2017-11-21T01:07:52.900Z,0.00
2017-11-21T01:08:52.858Z,0.00
2017-11-21T01:09:52.817Z,0.00
2017-11-21T01:10:52.784Z,0.00
2017-11-21T01:11:52.735Z,0.00
2017-11-21T01:12:52.703Z,0.00
2017-11-21T01:13:52.658Z,0.00
2017-11-21T01:14:52.612Z,0.00
2017-11-21T01:15:52.572Z,0.00
2017-11-21T01:16:52.543Z,0.00
2017-11-21T01:17:52.494Z,0.00
2017-11-21T01:18:52.452Z,0.00
2017-11-21T01:19:52.419Z,0.00
2017-11-21T01:20:52.376Z,0.00
2017-11-21T01:21:52.336Z,0.00
2017-11-21T01:22:52.293Z,0.00
2017-11-21T01:23:52.252Z,0.00
2017-11-21T01:24:52.213Z,0.00
2017-11-21T01:25:52.174Z,0.00
2017-11-21T01:26:52.129Z,0.00
2017-11-21T01:27:52.099Z,0.00
2017-11-21T01:28:52.050Z,0.00
2017-11-21T01:29:52.015Z,0.00
2017-11-21T01:30:51.969Z,0.00
2017-11-21T01:31:51.933Z,0.00
2017-11-21T01:32:52.699Z,0.00
2017-11-21T01:33:51.848Z,0.00
2017-11-21T01:34:51.808Z,0.00
2017-11-21T01:35:51.767Z,0.00
2017-11-21T01:36:51.730Z,0.00
2017-11-21T01:37:51.696Z,0.00
2017-11-21T01:38:51.640Z,0.00
2017-11-21T01:39:51.602Z,0.00
2017-11-21T01:40:51.563Z,0.00
2017-11-21T01:41:51.543Z,0.00
2017-11-21T01:42:51.486Z,0.00
2017-11-21T01:43:51.438Z,0.00
2017-11-21T01:44:51.400Z,0.00
2017-11-21T01:45:51.363Z,0.00
2017-11-21T01:46:51.323Z,0.00
2017-11-21T01:47:51.274Z,0.00
2017-11-21T01:48:51.238Z,0.00
2017-11-21T01:49:51.195Z,0.00
2017-11-21T01:50:51.159Z,0.00
2017-11-21T01:51:51.130Z,0.00
2017-11-21T01:52:51.086Z,0.00
2017-11-21T01:53:51.041Z,0.00
2017-11-21T01:54:50.992Z,0.00
2017-11-21T01:55:50.955Z,0.00
2017-11-21T01:56:50.916Z,0.00
2017-11-21T01:57:50.883Z,0.00
2017-11-21T01:58:50.839Z,0.00
2017-11-21T01:59:50.799Z,0.00
2017-11-21T02:00:50.751Z,0.00
2017-11-21T02:01:50.708Z,0.00
2017-11-21T02:02:50.673Z,0.00
2017-11-21T02:03:50.625Z,0.00
2017-11-21T02:04:50.595Z,0.00
2017-11-21T02:05:50.550Z,0.00
2017-11-21T02:06:50.507Z,0.00
2017-11-21T02:07:50.469Z,0.00
2017-11-21T02:08:50.423Z,0.00
2017-11-21T02:09:50.390Z,0.00
2017-11-21T02:10:50.344Z,0.00
2017-11-21T02:11:51.199Z,0.00
2017-11-21T02:12:51.208Z,0.00
2017-11-21T02:13:50.229Z,0.00
2017-11-21T02:14:50.181Z,0.00
2017-11-21T02:15:50.140Z,0.00
2017-11-21T02:16:50.098Z,0.00
2017-11-21T02:17:50.065Z,0.00
2017-11-21T02:18:50.019Z,0.00
2017-11-21T02:19:49.985Z,0.00
2017-11-21T02:20:49.937Z,0.00
2017-11-21T02:21:49.898Z,0.00
2017-11-21T02:22:49.853Z,0.00
2017-11-21T02:23:49.815Z,0.00
2017-11-21T02:24:49.776Z,0.00
2017-11-21T02:25:49.732Z,0.00
2017-11-21T02:26:49.695Z,0.00
2017-11-21T02:27:49.654Z,0.00
2017-11-21T02:28:49.611Z,0.00
2017-11-21T02:29:49.570Z,0.00
2017-11-21T02:30:50.207Z,0.00
2017-11-21T02:31:49.487Z,0.00
2017-11-21T02:32:49.452Z,0.00
2017-11-21T02:33:49.410Z,0.00
2017-11-21T02:34:49.369Z,0.00
2017-11-21T02:35:49.327Z,0.00
2017-11-21T02:36:49.286Z,0.00
2017-11-21T02:37:49.245Z,0.00
2017-11-21T02:38:49.208Z,0.00
2017-11-21T02:39:49.193Z,0.00
2017-11-21T02:40:49.134Z,0.00
2017-11-21T02:41:49.087Z,0.00
2017-11-21T02:42:49.062Z,0.00
2017-11-21T02:43:49.008Z,0.00
2017-11-21T02:44:48.968Z,0.00
2017-11-21T02:45:48.931Z,0.00
2017-11-21T02:46:48.883Z,0.00
2017-11-21T02:47:48.841Z,0.00
2017-11-21T02:48:48.798Z,0.00
2017-11-21T02:49:48.766Z,0.00
2017-11-21T02:50:48.729Z,0.00
2017-11-21T02:51:48.678Z,0.00
2017-11-21T02:52:48.652Z,0.00
2017-11-21T02:53:48.595Z,0.00
2017-11-21T02:54:48.568Z,0.00
2017-11-21T02:55:48.518Z,0.00
2017-11-21T02:56:48.475Z,0.00
2017-11-21T02:57:48.431Z,0.00
2017-11-21T02:58:48.391Z,0.00
2017-11-21T02:59:48.353Z,0.00
2017-11-21T03:00:48.316Z,0.00
2017-11-21T03:01:48.270Z,0.00
2017-11-21T03:02:48.229Z,0.00
2017-11-21T03:03:48.190Z,0.00
2017-11-21T03:04:48.148Z,0.00
2017-11-21T03:05:48.109Z,0.00
2017-11-21T03:06:48.087Z,0.00
2017-11-21T03:07:48.038Z,0.00
2017-11-21T03:08:47.986Z,0.00
2017-11-21T03:09:47.944Z,0.00
2017-11-21T03:10:47.909Z,0.00
2017-11-21T03:11:47.863Z,0.00
2017-11-21T03:12:47.826Z,0.00
2017-11-21T03:13:47.789Z,0.00
2017-11-21T03:14:47.744Z,0.00
2017-11-21T03:15:47.703Z,0.00
2017-11-21T03:16:47.661Z,0.00
2017-11-21T03:17:47.621Z,0.00
2017-11-21T03:18:47.593Z,0.00
2017-11-21T03:19:47.547Z,0.00
2017-11-21T03:20:47.505Z,0.00
2017-11-21T03:21:47.467Z,0.00
2017-11-21T03:22:47.420Z,0.00
2017-11-21T03:23:47.376Z,0.00
2017-11-21T03:24:47.345Z,0.00
2017-11-21T03:25:47.296Z,0.00
2017-11-21T03:26:47.260Z,0.00
2017-11-21T03:27:47.215Z,0.00
2017-11-21T03:28:47.173Z,0.00
2017-11-21T03:29:47.139Z,0.00
2017-11-21T03:30:47.098Z,0.00
2017-11-21T03:31:47.059Z,0.00
2017-11-21T03:32:47.014Z,0.00
2017-11-21T03:33:46.980Z,0.00
2017-11-21T03:34:46.940Z,0.00
2017-11-21T03:35:46.890Z,0.00
2017-11-21T03:36:46.851Z,0.00
2017-11-21T03:37:46.811Z,0.00
2017-11-21T03:38:46.770Z,0.00
2017-11-21T03:39:46.744Z,0.00
2017-11-21T03:40:46.692Z,0.00
2017-11-21T03:41:46.647Z,0.00
2017-11-21T03:42:46.607Z,0.00
2017-11-21T03:43:46.567Z,0.00
2017-11-21T03:44:46.526Z,0.00
2017-11-21T03:45:46.489Z,0.00
2017-11-21T03:46:46.445Z,0.00
2017-11-21T03:47:46.404Z,0.00
2017-11-21T03:48:46.371Z,0.00
2017-11-21T03:49:46.334Z,0.00
2017-11-21T03:50:46.283Z,0.00
2017-11-21T03:51:46.237Z,0.00
2017-11-21T03:52:46.233Z,0.00
2017-11-21T03:53:46.159Z,0.00
2017-11-21T03:54:46.119Z,0.00
2017-11-21T03:55:46.109Z,0.00
2017-11-21T03:56:46.036Z,0.00
2017-11-21T03:57:45.997Z,0.00
2017-11-21T03:58:45.956Z,0.00
2017-11-21T03:59:45.914Z,0.00
2017-11-21T04:00:45.874Z,0.00
2017-11-21T04:01:45.846Z,0.00
2017-11-21T04:02:45.798Z,0.00
2017-11-21T04:03:45.772Z,0.00
2017-11-21T04:04:45.716Z,0.00
2017-11-21T04:05:45.673Z,0.00
2017-11-21T04:06:45.644Z,0.00
2017-11-21T04:07:45.602Z,0.00
2017-11-21T04:08:45.565Z,0.00
2017-11-21T04:09:45.513Z,0.00
2017-11-21T04:10:45.468Z,0.00
2017-11-21T04:11:45.428Z,0.00
2017-11-21T04:12:45.385Z,0.00
2017-11-21T04:13:45.345Z,0.00
2017-11-21T04:14:45.312Z,0.00
2017-11-21T04:15:45.263Z,0.00
2017-11-21T04:16:45.225Z,0.00
2017-11-21T04:17:45.184Z,0.00
2017-11-21T04:18:45.140Z,0.00
2017-11-21T04:19:45.105Z,0.00
2017-11-21T04:20:45.059Z,0.00
2017-11-21T04:21:45.024Z,0.00
2017-11-21T04:22:44.986Z,0.00
2017-11-21T04:23:44.937Z,0.00
2017-11-21T04:24:44.896Z,0.00
2017-11-21T04:25:44.855Z,0.00
2017-11-21T04:26:44.824Z,0.00
2017-11-21T04:27:44.773Z,0.00
2017-11-21T04:28:44.736Z,0.00
2017-11-21T04:29:44.697Z,0.00
2017-11-21T04:30:44.658Z,0.00
2017-11-21T04:31:44.621Z,0.00
2017-11-21T04:32:44.570Z,0.00
2017-11-21T04:33:44.530Z,0.00
2017-11-21T04:34:44.498Z,0.00
2017-11-21T04:35:44.455Z,0.00
2017-11-21T04:36:44.406Z,0.00
2017-11-21T04:37:44.372Z,0.00
2017-11-21T04:38:44.331Z,0.00
2017-11-21T04:39:44.286Z,0.00
2017-11-21T04:40:44.244Z,0.00
2017-11-21T04:41:44.213Z,0.00
2017-11-21T04:42:44.164Z,0.00
2017-11-21T04:43:44.135Z,0.00
2017-11-21T04:44:44.089Z,0.00
2017-11-21T04:45:44.045Z,0.00
2017-11-21T04:46:44.007Z,0.00
2017-11-21T04:47:43.961Z,0.00
2017-11-21T04:48:43.919Z,0.00
2017-11-21T04:49:43.885Z,0.00
2017-11-21T04:50:43.842Z,0.00
2017-11-21T04:51:43.800Z,0.00
2017-11-21T04:52:43.756Z,0.00
2017-11-21T04:53:43.715Z,0.00
2017-11-21T04:54:43.679Z,0.00
2017-11-21T04:55:43.634Z,0.00
2017-11-21T04:56:43.598Z,0.00
2017-11-21T04:57:43.561Z,0.00
2017-11-21T04:58:43.516Z,0.00
2017-11-21T04:59:43.473Z,0.00
2017-11-21T05:00:43.433Z,0.00
2017-11-21T05:01:43.392Z,0.00
2017-11-21T05:02:43.363Z,0.00
2017-11-21T05:03:43.310Z,0.00
2017-11-21T05:04:43.285Z,0.00
2017-11-21T05:05:43.236Z,0.00
2017-11-21T05:06:43.187Z,0.00
2017-11-21T05:07:43.149Z,0.00
2017-11-21T05:08:43.104Z,0.00
2017-11-21T05:09:43.095Z,0.00
2017-11-21T05:10:43.033Z,0.00
2017-11-21T05:11:42.983Z,0.00
2017-11-21T05:12:42.943Z,0.00
2017-11-21T05:13:42.902Z,0.00
2017-11-21T05:14:42.879Z,0.00
2017-11-21T05:15:42.818Z,0.00
2017-11-21T05:16:42.807Z,0.00
2017-11-21T05:17:42.742Z,0.00
2017-11-21T05:18:42.700Z,0.00
2017-11-21T05:19:42.659Z,0.00
2017-11-21T05:20:42.617Z,0.00
2017-11-21T05:21:42.575Z,0.00
2017-11-21T05:22:42.532Z,0.00
2017-11-21T05:23:42.493Z,0.00
2017-11-21T05:24:42.459Z,0.00
2017-11-21T05:25:42.418Z,0.00
2017-11-21T05:26:42.374Z,0.00
2017-11-21T05:27:42.336Z,0.00
2017-11-21T05:28:42.292Z,0.00
2017-11-21T05:29:42.248Z,0.00
2017-11-21T05:30:42.210Z,0.00
2017-11-21T05:31:42.174Z,0.00
2017-11-21T05:32:42.124Z,0.00
2017-11-21T05:33:42.085Z,0.00
2017-11-21T05:34:42.043Z,0.00
2017-11-21T05:35:42.001Z,0.00
2017-11-21T05:36:41.961Z,0.00
2017-11-21T05:37:41.928Z,0.00
2017-11-21T05:38:41.880Z,0.00
2017-11-21T05:39:41.868Z,0.00
2017-11-21T05:40:41.804Z,0.00
2017-11-21T05:41:41.763Z,0.00
2017-11-21T05:42:41.717Z,0.00
2017-11-21T05:43:41.689Z,0.00
2017-11-21T05:44:41.635Z,0.00
2017-11-21T05:45:41.597Z,0.00
2017-11-21T05:46:41.551Z,0.00
2017-11-21T05:47:41.514Z,0.00
2017-11-21T05:48:41.468Z,0.00
2017-11-21T05:49:41.430Z,0.00
2017-11-21T05:50:41.391Z,0.00
2017-11-21T05:51:41.349Z,0.00
2017-11-21T05:52:41.307Z,0.00
2017-11-21T05:53:41.267Z,0.00
2017-11-21T05:54:41.227Z,0.00
2017-11-21T05:55:41.190Z,0.00
2017-11-21T05:56:41.144Z,0.00
2017-11-21T05:57:41.106Z,0.00
2017-11-21T05:58:41.119Z,0.00
2017-11-21T05:59:41.018Z,0.00
2017-11-21T06:00:40.980Z,0.00
2017-11-21T06:01:40.948Z,0.00
2017-11-21T06:02:40.956Z,0.00
2017-11-21T06:03:40.864Z,0.00
2017-11-21T06:04:40.811Z,0.00
2017-11-21T06:05:40.777Z,0.00
2017-11-21T06:06:40.736Z,0.00
2017-11-21T06:07:40.693Z,4.00
2017-11-21T06:08:40.652Z,4.00
2017-11-21T06:09:40.632Z,4.00
2017-11-21T06:10:40.582Z,0.00
2017-11-21T06:11:40.531Z,4.00
2017-11-21T06:12:40.490Z,4.00
2017-11-21T06:13:40.447Z,4.00
2017-11-21T06:14:40.426Z,4.00
2017-11-21T06:15:40.363Z,8.00
2017-11-21T06:16:40.333Z,4.00
2017-11-21T06:17:40.282Z,4.00
2017-11-21T06:18:40.244Z,8.00
2017-11-21T06:19:40.199Z,8.00
2017-11-21T06:20:40.159Z,12.00
2017-11-21T06:21:40.118Z,12.00
2017-11-21T06:22:40.080Z,12.00
2017-11-21T06:23:40.038Z,16.00
2017-11-21T06:24:40.014Z,16.00
2017-11-21T06:25:39.962Z,16.00
2017-11-21T06:26:39.921Z,20.00
2017-11-21T06:27:39.876Z,24.00
2017-11-21T06:28:39.833Z,28.00
2017-11-21T06:29:39.798Z,28.00
2017-11-21T06:30:39.759Z,28.00
2017-11-21T06:31:39.713Z,36.00
2017-11-21T06:32:39.742Z,40.00
2017-11-21T06:33:39.630Z,40.00
2017-11-21T06:34:39.596Z,44.00
2017-11-21T06:35:39.566Z,44.00
2017-11-21T06:36:39.531Z,48.00
2017-11-21T06:37:39.468Z,48.00
2017-11-21T06:38:39.434Z,56.00
2017-11-21T06:39:39.386Z,60.00
2017-11-21T06:40:39.347Z,68.00
2017-11-21T06:41:39.308Z,72.00
2017-11-21T06:42:39.269Z,80.00
2017-11-21T06:43:39.233Z,80.00
2017-11-21T06:44:39.184Z,88.00
2017-11-21T06:45:39.147Z,100.00
2017-11-21T06:46:39.104Z,104.00
2017-11-21T06:47:39.058Z,100.00
2017-11-21T06:48:39.021Z,112.00
2017-11-21T06:49:38.985Z,120.00
2017-11-21T06:50:38.940Z,124.00
2017-11-21T06:51:38.895Z,140.00
2017-11-21T06:52:38.862Z,152.00
2017-11-21T06:53:38.819Z,172.00
2017-11-21T06:54:38.784Z,192.00
2017-11-21T06:55:38.733Z,192.00
2017-11-21T06:56:38.701Z,204.00
2017-11-21T06:57:38.665Z,204.00
2017-11-21T06:58:38.617Z,224.00
2017-11-21T06:59:38.577Z,232.00
2017-11-21T07:00:38.527Z,240.00
2017-11-21T07:01:38.499Z,256.00
2017-11-21T07:02:38.447Z,300.00
2017-11-21T07:03:38.408Z,308.00
2017-11-21T07:04:38.368Z,312.00
2017-11-21T07:05:38.328Z,304.00
2017-11-21T07:06:38.320Z,320.00
2017-11-21T07:07:38.242Z,332.00
2017-11-21T07:08:38.204Z,324.00
2017-11-21T07:09:38.171Z,324.00
2017-11-21T07:10:38.126Z,332.00
2017-11-21T07:11:38.106Z,332.00
2017-11-21T07:12:38.043Z,332.00
2017-11-21T07:13:38.006Z,336.00
2017-11-21T07:14:37.962Z,336.00
2017-11-21T07:15:37.915Z,336.00
2017-11-21T07:16:37.884Z,324.00
2017-11-21T07:17:37.842Z,340.00
2017-11-21T07:18:37.792Z,364.00
2017-11-21T07:19:37.761Z,384.00
2017-11-21T07:20:37.717Z,388.00
2017-11-21T07:21:37.679Z,404.00
2017-11-21T07:22:37.656Z,400.00
2017-11-21T07:23:37.594Z,388.00
2017-11-21T07:24:37.551Z,380.00
2017-11-21T07:25:37.525Z,380.00
2017-11-21T07:26:37.466Z,388.00
2017-11-21T07:27:37.431Z,380.00
2017-11-21T07:28:37.386Z,364.00
2017-11-21T07:29:37.345Z,380.00
2017-11-21T07:30:37.312Z,400.00
2017-11-21T07:31:37.264Z,420.00
2017-11-21T07:32:37.222Z,436.00
2017-11-21T07:33:37.202Z,440.00
2017-11-21T07:34:37.140Z,436.00
2017-11-21T07:35:37.100Z,440.00
2017-11-21T07:36:37.068Z,444.00
2017-11-21T07:37:37.034Z,420.00
2017-11-21T07:38:36.978Z,400.00
2017-11-21T07:39:36.957Z,392.00
2017-11-21T07:40:36.904Z,408.00
2017-11-21T07:41:36.859Z,444.00
2017-11-21T07:42:36.829Z,492.00
2017-11-21T07:43:36.775Z,528.00
2017-11-21T07:44:36.732Z,560.00
2017-11-21T07:45:36.702Z,580.00
2017-11-21T07:46:36.654Z,604.00
2017-11-21T07:47:36.610Z,644.00
2017-11-21T07:48:36.568Z,732.00
2017-11-21T07:49:36.540Z,824.00
2017-11-21T07:50:36.487Z,916.00
2017-11-21T07:51:36.457Z,956.00
2017-11-21T07:52:36.415Z,944.00
2017-11-21T07:53:36.369Z,936.00
2017-11-21T07:54:36.377Z,964.00
2017-11-21T07:55:36.282Z,1036.00
2017-11-21T07:56:36.248Z,1080.00
2017-11-21T07:57:36.226Z,1108.00
2017-11-21T07:58:36.165Z,1104.00
2017-11-21T07:59:36.176Z,1092.00
2017-11-21T08:00:36.081Z,1124.00
2017-11-21T08:01:36.042Z,1192.00
2017-11-21T08:02:36.012Z,1244.00
2017-11-21T08:03:35.958Z,1320.00
2017-11-21T08:04:35.924Z,1408.00
2017-11-21T08:05:35.902Z,1476.00
2017-11-21T08:06:35.841Z,1556.00
2017-11-21T08:07:35.841Z,1568.00
2017-11-21T08:08:35.761Z,1600.00
2017-11-21T08:09:35.721Z,1564.00
2017-11-21T08:10:35.694Z,1568.00
2017-11-21T08:11:35.637Z,1528.00
2017-11-21T08:12:35.594Z,1448.00
2017-11-21T08:13:35.559Z,1400.00
2017-11-21T08:14:35.526Z,1352.00
2017-11-21T08:15:35.469Z,1300.00
2017-11-21T08:16:35.432Z,1244.00
2017-11-21T08:17:35.394Z,1212.00
2017-11-21T08:18:35.349Z,1232.00
2017-11-21T08:19:35.309Z,1244.00
2017-11-21T08:20:35.270Z,1332.00
2017-11-21T08:21:35.230Z,1440.00
2017-11-21T08:22:35.190Z,1484.00
2017-11-21T08:23:35.144Z,1480.00
2017-11-21T08:24:35.104Z,1496.00
2017-11-21T08:25:35.101Z,1548.00
2017-11-21T08:26:35.031Z,1552.00
2017-11-21T08:27:35.030Z,1528.00
2017-11-21T08:28:34.950Z,1532.00
2017-11-21T08:29:34.905Z,1520.00
2017-11-21T08:30:34.873Z,1428.00
2017-11-21T08:31:34.819Z,1388.00
2017-11-21T08:32:34.784Z,1424.00
2017-11-21T08:33:34.753Z,1404.00
2017-11-21T08:34:34.702Z,1436.00
2017-11-21T08:35:34.663Z,1488.00
2017-11-21T08:36:34.619Z,1524.00
2017-11-21T08:37:34.591Z,1548.00
2017-11-21T08:38:34.547Z,1544.00
2017-11-21T08:39:34.499Z,1564.00
2017-11-21T08:40:34.464Z,1560.00
2017-11-21T08:41:34.418Z,1512.00
2017-11-21T08:42:34.378Z,1440.00
2017-11-21T08:43:34.348Z,1372.00
2017-11-21T08:44:34.314Z,1280.00
2017-11-21T08:45:34.259Z,1180.00
2017-11-21T08:46:34.238Z,1144.00
2017-11-21T08:47:34.177Z,1136.00
2017-11-21T08:48:34.136Z,1148.00
2017-11-21T08:49:34.093Z,1164.00
2017-11-21T08:50:34.057Z,1176.00
2017-11-21T08:51:34.019Z,1216.00
2017-11-21T08:52:33.975Z,1284.00
2017-11-21T08:53:33.934Z,1372.00
2017-11-21T08:54:33.897Z,1440.00
2017-11-21T08:55:33.852Z,1512.00
2017-11-21T08:56:33.822Z,1576.00
2017-11-21T08:57:33.776Z,1564.00
2017-11-21T08:58:33.732Z,1540.00
2017-11-21T08:59:33.695Z,1552.00
2017-11-21T09:00:33.661Z,1564.00
2017-11-21T09:01:33.606Z,1584.00
2017-11-21T09:02:33.572Z,1628.00
2017-11-21T09:03:33.538Z,1660.00
2017-11-21T09:04:33.499Z,1640.00
2017-11-21T09:05:33.447Z,1648.00
2017-11-21T09:06:33.409Z,1652.00
2017-11-21T09:07:33.371Z,1656.00
2017-11-21T09:08:33.328Z,1652.00
2017-11-21T09:09:33.286Z,1676.00
2017-11-21T09:10:33.262Z,1716.00
2017-11-21T09:11:33.210Z,1796.00
2017-11-21T09:12:33.170Z,1812.00
2017-11-21T09:13:33.130Z,1840.00
2017-11-21T09:14:33.087Z,1944.00
2017-11-21T09:15:33.285Z,2056.00
2017-11-21T09:16:33.006Z,2072.00
2017-11-21T09:17:32.968Z,2032.00
2017-11-21T09:18:32.932Z,2004.00
2017-11-21T09:19:32.890Z,2012.00
2017-11-21T09:20:32.855Z,2060.00
2017-11-21T09:21:32.824Z,2084.00
2017-11-21T09:22:32.761Z,2108.00
2017-11-21T09:23:32.733Z,2084.00
2017-11-21T09:24:32.683Z,2052.00
2017-11-21T09:25:32.644Z,2040.00
2017-11-21T09:26:32.605Z,1988.00
2017-11-21T09:27:32.564Z,1924.00
2017-11-21T09:28:32.533Z,1884.00
2017-11-21T09:29:32.480Z,1896.00
2017-11-21T09:30:32.452Z,1948.00
2017-11-21T09:31:32.425Z,2004.00
2017-11-21T09:32:32.361Z,2084.00
2017-11-21T09:33:32.320Z,2208.00
2017-11-21T09:34:32.281Z,2356.00
2017-11-21T09:35:32.253Z,2484.00
2017-11-21T09:36:32.201Z,2500.00
2017-11-21T09:37:32.163Z,2444.00
2017-11-21T09:38:32.120Z,2368.00
2017-11-21T09:39:32.080Z,2288.00
2017-11-21T09:40:32.051Z,2236.00
2017-11-21T09:41:32.012Z,2172.00
2017-11-21T09:42:31.963Z,2156.00
2017-11-21T09:43:31.930Z,2224.00
2017-11-21T09:44:31.878Z,2312.00
2017-11-21T09:45:31.849Z,2360.00
2017-11-21T09:46:31.805Z,2276.00
2017-11-21T09:47:31.777Z,2116.00
2017-11-21T09:48:31.719Z,2016.00
2017-11-21T09:49:31.686Z,1956.00
2017-11-21T09:50:31.663Z,1932.00
2017-11-21T09:51:31.598Z,1960.00
2017-11-21T09:52:31.565Z,2072.00
2017-11-21T09:53:31.552Z,2116.00
2017-11-21T09:54:31.483Z,2044.00
2017-11-21T09:55:31.442Z,1984.00
2017-11-21T09:56:31.402Z,1964.00
2017-11-21T09:57:31.365Z,1980.00
2017-11-21T09:58:31.324Z,2012.00
2017-11-21T09:59:31.282Z,2036.00
2017-11-21T10:00:31.245Z,2076.00
2017-11-21T10:01:31.203Z,2140.00
2017-11-21T10:02:31.164Z,2216.00
2017-11-21T10:03:31.119Z,2324.00
2017-11-21T10:04:31.076Z,2480.00
2017-11-21T10:05:31.040Z,2616.00
2017-11-21T10:06:30.998Z,2688.00
2017-11-21T10:07:30.955Z,2700.00
2017-11-21T10:08:30.920Z,2724.00
2017-11-21T10:09:30.881Z,2816.00
2017-11-21T10:10:30.847Z,2876.00
2017-11-21T10:11:30.808Z,2836.00
2017-11-21T10:12:30.769Z,2784.00
2017-11-21T10:13:30.723Z,2764.00
2017-11-21T10:14:30.684Z,2776.00
2017-11-21T10:15:30.644Z,2788.00
2017-11-21T10:16:30.613Z,2764.00
2017-11-21T10:17:30.562Z,2712.00
2017-11-21T10:18:30.521Z,2624.00
2017-11-21T10:19:30.479Z,2608.00
2017-11-21T10:20:30.443Z,2780.00
2017-11-21T10:21:30.408Z,2944.00
2017-11-21T10:22:30.365Z,2864.00
2017-11-21T10:23:30.326Z,2680.00
2017-11-21T10:24:30.285Z,2524.00
2017-11-21T10:25:30.253Z,2416.00
2017-11-21T10:26:30.199Z,2336.00
2017-11-21T10:27:30.162Z,2276.00
2017-11-21T10:28:30.118Z,2272.00
2017-11-21T10:29:30.080Z,2320.00
2017-11-21T10:30:30.041Z,2352.00
2017-11-21T10:31:30.002Z,2340.00
2017-11-21T10:32:29.957Z,2320.00
2017-11-21T10:33:29.918Z,2316.00
2017-11-21T10:34:29.883Z,2348.00
2017-11-21T10:35:29.839Z,2388.00
2017-11-21T10:36:29.805Z,2436.00
2017-11-21T10:37:29.765Z,2480.00
2017-11-21T10:38:29.724Z,2512.00
2017-11-21T10:39:29.704Z,2524.00
2017-11-21T10:40:29.660Z,2528.00
2017-11-21T10:41:29.608Z,2524.00
2017-11-21T10:42:29.586Z,2540.00
2017-11-21T10:43:29.529Z,2560.00
2017-11-21T10:44:29.482Z,2540.00
2017-11-21T10:45:29.450Z,2556.00
2017-11-21T10:46:29.398Z,2616.00
2017-11-21T10:47:29.365Z,2664.00
2017-11-21T10:48:29.321Z,2740.00
2017-11-21T10:49:29.291Z,2856.00
2017-11-21T10:50:29.313Z,2952.00
2017-11-21T10:51:29.251Z,3020.00
2017-11-21T10:52:29.188Z,2976.00
2017-11-21T10:53:29.123Z,2916.00
2017-11-21T10:54:29.089Z,2868.00
2017-11-21T10:55:29.044Z,2820.00
2017-11-21T10:56:29.009Z,2784.00
2017-11-21T10:57:28.964Z,2732.00
2017-11-21T10:58:28.936Z,2660.00
2017-11-21T10:59:28.882Z,2584.00
2017-11-21T11:00:28.846Z,2524.00
2017-11-21T11:01:28.823Z,2504.00
2017-11-21T11:02:28.761Z,2544.00
2017-11-21T11:03:28.785Z,2660.00
2017-11-21T11:04:28.697Z,2796.00
2017-11-21T11:05:28.665Z,2924.00
2017-11-21T11:06:28.626Z,3084.00
2017-11-21T11:07:28.580Z,3244.00
2017-11-21T11:08:28.532Z,3344.00
2017-11-21T11:09:28.489Z,3356.00
2017-11-21T11:10:28.476Z,3296.00
2017-11-21T11:11:28.422Z,3204.00
2017-11-21T11:12:28.366Z,3092.00
2017-11-21T11:13:28.355Z,3004.00
2017-11-21T11:14:28.289Z,2956.00
2017-11-21T11:15:28.247Z,2928.00
2017-11-21T11:16:28.235Z,2964.00
2017-11-21T11:17:28.201Z,3064.00
2017-11-21T11:18:28.123Z,3092.00
2017-11-21T11:19:28.129Z,3048.00
2017-11-21T11:20:28.120Z,3004.00
2017-11-21T11:21:28.039Z,3020.00
2017-11-21T11:22:27.966Z,3112.00
2017-11-21T11:23:27.939Z,3180.00
2017-11-21T11:24:27.904Z,3228.00
2017-11-21T11:25:27.847Z,3180.00
2017-11-21T11:26:27.824Z,3136.00
2017-11-21T11:27:27.767Z,3172.00
2017-11-21T11:28:27.737Z,3256.00
2017-11-21T11:29:27.689Z,3312.00
2017-11-21T11:30:27.651Z,3296.00
2017-11-21T11:31:27.610Z,3264.00
2017-11-21T11:32:27.571Z,3324.00
2017-11-21T11:33:27.543Z,3444.00
2017-11-21T11:34:27.509Z,3508.00
2017-11-21T11:35:27.455Z,3480.00
2017-11-21T11:36:27.412Z,3424.00
2017-11-21T11:37:27.389Z,3312.00
2017-11-21T11:38:27.344Z,3112.00
2017-11-21T11:39:27.296Z,2976.00
2017-11-21T11:40:27.270Z,3052.00
2017-11-21T11:41:27.223Z,3224.00
2017-11-21T11:42:27.176Z,3352.00
2017-11-21T11:43:27.134Z,3460.00
2017-11-21T11:44:27.097Z,3496.00
2017-11-21T11:45:27.056Z,3392.00
2017-11-21T11:46:27.019Z,3184.00
2017-11-21T11:47:26.987Z,3008.00
2017-11-21T11:48:26.936Z,3020.00
2017-11-21T11:49:26.898Z,3324.00
2017-11-21T11:50:26.887Z,3840.00
2017-11-21T11:51:26.828Z,4320.00
2017-11-21T11:52:26.781Z,4624.00
2017-11-21T11:53:26.745Z,4476.00
2017-11-21T11:54:26.711Z,4248.00
2017-11-21T11:55:26.667Z,3796.00
2017-11-21T11:56:26.637Z,3488.00
2017-11-21T11:57:26.611Z,3236.00
2017-11-21T11:58:26.546Z,3000.00
2017-11-21T11:59:26.510Z,2960.00
2017-11-21T12:00:26.485Z,2924.00
2017-11-21T12:01:26.461Z,2732.00
2017-11-21T12:02:26.387Z,2464.00
2017-11-21T12:03:26.357Z,2220.00
2017-11-21T12:04:26.310Z,2096.00
2017-11-21T12:05:26.269Z,2092.00
2017-11-21T12:06:26.236Z,2060.00
2017-11-21T12:07:26.193Z,2044.00
2017-11-21T12:08:26.155Z,2104.00
2017-11-21T12:09:26.121Z,2140.00
2017-11-21T12:10:26.080Z,2104.00
2017-11-21T12:11:26.050Z,2036.00
2017-11-21T12:12:26.003Z,2012.00
2017-11-21T12:13:25.975Z,1944.00
2017-11-21T12:14:25.921Z,1764.00
2017-11-21T12:15:25.888Z,1532.00
2017-11-21T12:16:25.869Z,1360.00
2017-11-21T12:17:25.801Z,1280.00
2017-11-21T12:18:25.765Z,1272.00
2017-11-21T12:19:25.740Z,1252.00
2017-11-21T12:20:25.676Z,1212.00
2017-11-21T12:21:25.644Z,1196.00
2017-11-21T12:22:25.611Z,1224.00
2017-11-21T12:23:25.600Z,1288.00
2017-11-21T12:24:25.535Z,1348.00
2017-11-21T12:25:25.489Z,1428.00
2017-11-21T12:26:25.449Z,1568.00
2017-11-21T12:27:25.400Z,1768.00
2017-11-21T12:28:25.364Z,1920.00
2017-11-21T12:29:25.329Z,1968.00
2017-11-21T12:30:25.291Z,1936.00
2017-11-21T12:31:25.255Z,1868.00
2017-11-21T12:32:25.218Z,1816.00
2017-11-21T12:33:25.166Z,1788.00
2017-11-21T12:34:25.125Z,1748.00
2017-11-21T12:35:25.092Z,1640.00
2017-11-21T12:36:25.059Z,1484.00
2017-11-21T12:37:25.011Z,1348.00
2017-11-21T12:38:24.971Z,1280.00
2017-11-21T12:39:24.936Z,1224.00
2017-11-21T12:40:24.971Z,1196.00
2017-11-21T12:41:24.854Z,1208.00
2017-11-21T12:42:24.825Z,1232.00
2017-11-21T12:43:24.769Z,1268.00